Weather observations for the past three days for
Jasper Walker County Airport & Bevill Field
Imperial (Metric)
Date Time (cdt) Wind (mph) Vis. (mi.) Weather Sky Cond. Temperature (ºF) Relative Humidity Wind Chill (°F) Heat Index (°F) Pressure Precipitation (in)
Air Dwpt 6 hour altimeter (in) sea level (mb) 1 hr 3 hr 6 hr
Max. Min.
08 18:35 Calm 10.00 Fair CLR 64.4 55.4 73% 29.94 0.0
08 18:15 Calm 10.00 Fair CLR 64.4 55.4 73% 29.94 0.0
08 17:55 Calm 10.00 Fair CLR 66.2 55.4 68% 29.96 0.0
08 17:35 Vrbl 5 10.00 Fair CLR 66.2 55.4 68% 29.95 0.0
08 17:15 Calm 10.00 Fair CLR 66.2 55.4 68% 29.96 0.0
08 16:55 Vrbl 5 10.00 Fair CLR 66.2 53.6 64% 29.94 0.0
08 16:35 Vrbl 3 10.00 Fair CLR 66.2 53.6 64% 29.95 0.0
08 16:15 Calm 10.00 Fair CLR 68 53.6 60% 29.95 0.0
08 15:55 Calm 10.00 Fair CLR 68 51.8 56% 29.96 0.0
08 15:35 SE 3 10.00 Fair CLR 68 53.6 60% 29.95 0.0
08 15:15 Calm 10.00 Fair CLR 69.8 51.8 53% 29.97 0.0
08 14:55 Vrbl 5 10.00 Fair CLR 69.8 50 50% 29.97 0.0
08 14:35 Vrbl 5 10.00 Fair CLR 68 50 53% 29.97 0.0
08 14:15 Vrbl 6 10.00 Fair CLR 69.8 50 50% 29.98 0.0
08 13:55 Calm 10.00 Fair CLR 68 51.8 56% 29.98 0.0
08 13:35 Vrbl 3 G 12 10.00 Fair CLR 68 51.8 56% 29.98 0.0
08 13:15 SE 5 10.00 Fair CLR 68 50 53% 29.99 0.0
08 12:55 E 5 10.00 Fair CLR 68 50 53% 30 0.0
08 12:35 SE 5 10.00 Fair CLR 68 50 53% 30.01 0.0
08 12:15 Calm 10.00 Fair CLR 68 48.2 49% 30.03 0.0
08 11:55 Vrbl 5 10.00 Fair CLR 69.8 48.2 46% 30.04 0.0
08 11:35 Calm 10.00 Fair CLR 69.8 48.2 46% 30.04 0.0
08 11:15 Vrbl 5 10.00 Fair CLR 68 50 53% 30.05 0.0
08 10:55 Vrbl 6 10.00 Fair CLR 68 48.2 49% 30.06 0.0
08 10:35 Vrbl 6 10.00 Fair CLR 66.2 48.2 52% 30.05 0.0
08 10:15 E 8 10.00 Fair CLR 66.2 46.4 49% 30.06 0.0
08 09:55 Vrbl 6 G 12 10.00 Fair CLR 66.2 48.2 52% 30.07 0.0
08 09:35 E 8 10.00 Fair CLR 64.4 48.2 56% 30.07 0.0
08 09:15 E 8 10.00 Fair CLR 62.6 50 64% 30.08 0.0
08 08:55 E 6 10.00 Fair CLR 62.6 51.8 68% 30.09 0.0
08 08:35 Calm 10.00 Fair CLR 59 51.8 77% 30.08 0.0
08 08:15 Calm 10.00 Fair CLR 57.2 51.8 82% 30.08 0.0
08 07:55 Calm 10.00 Fair CLR 55.4 51.8 88% 30.08 0.0
08 07:35 Calm 10.00 Fair CLR 53.6 51.8 94% 30.08 0.0
08 07:15 Calm 10.00 Fair CLR 51.8 51.8 100% 30.08 0.0
08 06:55 Calm 9.00 Fair CLR 50 50 100% 30.07 0.0
08 06:35 Calm 9.00 Fair CLR 48.2 48.2 100% 30.06 0.0
08 06:15 Calm 7.00 Fair CLR 48.2 48.2 100% 30.05 0.0
08 05:55 Calm 8.00 Fair CLR 48.2 48.2 100% 30.04 0.0
08 05:35 Calm 9.00 Fair CLR 48.2 48.2 100% 30.03 0.0
08 05:15 Calm 9.00 Fair CLR 50 50 100% 30.03 0.0
08 04:55 Calm 8.00 Fair CLR 50 50 100% 30.03 0.0
08 04:35 Calm 9.00 Fair CLR 50 50 100% 30.01 0.0
08 04:15 Calm 10.00 Fair CLR 50 50 100% 30 0.0
08 03:55 Calm 10.00 Fair CLR 50 50 100% 30 0.0
08 03:35 Calm 9.00 Fair CLR 50 50 100% 30 0.0
08 03:15 Calm 8.00 Fair CLR 50 50 100% 30 0.0
08 02:55 Calm 9.00 Fair CLR 50 50 100% 30 0.0
08 02:35 Calm 10.00 Fair CLR 50 50 100% 29.99 0.0
08 02:15 Calm 10.00 Fair CLR 51.8 51.8 100% 30 0.0
08 01:35 Calm 10.00 Fair CLR 55.4 51.8 88% 30.01 0.0
08 01:15 Calm 10.00 Fair CLR 53.6 53.6 100% 30.01 0.0
08 00:55 Calm 9.00 Fair CLR 51.8 51.8 100% 30.02 0.0
08 00:35 Calm 5.00 Fog/Mist CLR 53.6 53.6 100% 30.02 0.0
08 00:15 Calm 9.00 Fair CLR 53.6 53.6 100% 30.02 0.0
07 23:55 Calm 10.00 Fair CLR 53.6 53.6 100% 30.02 0.0
07 23:35 Calm 9.00 Fair CLR 53.6 53.6 100% 30.03 0.0
07 23:15 Calm 10.00 Fair CLR 53.6 53.6 100% 30.03 0.0
07 22:55 Calm 10.00 Fair CLR 53.6 53.6 100% 30.03 0.0
07 22:35 Calm 10.00 Fair CLR 55.4 55.4 100% 30.03 0.0
07 22:15 Calm 8.00 Fair CLR 55.4 55.4 100% 30.02 0.0
07 21:55 Calm 10.00 Fair CLR 55.4 55.4 100% 30.02 0.0
07 21:35 Calm 10.00 Fair CLR 55.4 55.4 100% 30.02 0.0
07 21:15 Calm 10.00 Fair CLR 55.4 55.4 100% 30.01 0.0
07 20:55 Calm 10.00 Fair CLR 57.2 55.4 94% 30.01 0.0
07 20:35 Calm 10.00 Fair CLR 57.2 57.2 100% 30 0.0
07 20:15 Calm 10.00 Fair CLR 57.2 57.2 100% 30 0.0
07 19:55 Calm 10.00 Fair CLR 59 57.2 94% 29.99 0.0
07 19:35 Calm 10.00 Fair CLR 60.8 57.2 88% 29.99 0.0
07 19:15 Calm 10.00 Fair CLR 62.6 55.4 77% 29.99 0.0
07 18:55 Calm 10.00 Partly Cloudy SCT047 64.4 53.6 68% 29.98 0.0
07 18:35 Vrbl 5 10.00 Mostly Cloudy BKN047 66.2 53.6 64% 29.98 0.0
07 18:15 Vrbl 5 10.00 Mostly Cloudy BKN047 68 53.6 60% 29.98 0.0
07 17:55 N 5 10.00 Mostly Cloudy BKN047 68 53.6 60% 29.97 0.0
07 17:35 N 6 10.00 Mostly Cloudy BKN046 71.6 53.6 53% 29.97 0.0
07 17:15 N 6 10.00 Partly Cloudy SCT047 69.8 55.4 60% 29.97 0.0
07 16:55 NW 6 10.00 A Few Clouds FEW045 71.6 55.4 57% 29.96 0.0
07 16:35 NW 7 10.00 Partly Cloudy SCT043 69.8 53.6 57% 29.96 0.0
07 16:15 NW 6 10.00 Partly Cloudy SCT043 69.8 53.6 57% 29.96 0.0
07 15:15 NW 8 10.00 Fair CLR 71.6 55.4 57% 29.97 0.0
07 14:55 W 7 10.00 Fair CLR 68 53.6 60% 29.97 0.0
07 14:35 N 8 10.00 Fair CLR 71.6 53.6 53% 29.98 0.0
07 14:15 NW 9 10.00 Fair CLR 69.8 53.6 57% 29.98 0.0
07 13:55 Vrbl 6 10.00 A Few Clouds FEW036 68 53.6 60% 29.98 0.0
07 13:35 NE 7 10.00 Partly Cloudy SCT036 69.8 53.6 57% 29.97 0.0
07 13:15 NE 8 10.00 Fair CLR 69.8 55.4 60% 29.98 0.0
07 12:55 Vrbl 3 10.00 Fair CLR 68 53.6 60% 29.98 0.0
07 12:35 Vrbl 5 G 14 10.00 A Few Clouds FEW034 68 53.6 60% 29.99 0.0
07 12:15 Vrbl 5 10.00 Mostly Cloudy BKN033 68 53.6 60% 30.01 0.0
07 11:55 N 8 G 15 10.00 Mostly Cloudy SCT028 BKN032 66.2 55.4 68% 30.01 0.0
07 11:35 Vrbl 5 10.00 Mostly Cloudy BKN026 BKN033 66.2 53.6 64% 30.01 0.0
07 11:15 Vrbl 7 10.00 Partly Cloudy SCT024 SCT033 64.4 53.6 68% 30 0.0
07 10:55 N 7 G 14 10.00 Partly Cloudy SCT030 64.4 53.6 68% 29.99 0.0
07 10:35 N 8 10.00 Mostly Cloudy BKN030 60.8 53.6 77% 29.99 0.0
07 10:15 N 8 G 16 10.00 Overcast FEW016 OVC030 60.8 53.6 77% 30 0.0
07 09:55 N 9 10.00 Overcast BKN017 OVC029 59 53.6 82% 30 0.0
07 09:35 N 9 G 17 10.00 Overcast OVC016 59 55.4 88% 30.01 0.0
07 09:15 N 8 10.00 Overcast OVC014 59 55.4 88% 30 0.0
07 08:55 N 8 10.00 Overcast BKN010 OVC013 57.2 55.4 94% 29.98 0.0
07 08:35 Vrbl 5 10.00 Overcast OVC012 57.2 55.4 94% 29.98 0.0
07 08:15 Vrbl 6 10.00 Overcast OVC011 57.2 55.4 94% 29.96 0.0
07 07:55 Vrbl 5 G 12 10.00 Overcast BKN006 OVC012 57.2 55.4 94% 29.96 0.0
07 07:35 Vrbl 6 10.00 Overcast OVC006 57.2 55.4 94% 29.94 0.0
07 07:15 Vrbl 3 10.00 Light Rain BKN008 OVC011 57.2 55.4 94% 29.95 0.0
07 06:55 Vrbl 3 G 12 4.00 Light Rain Fog/Mist OVC009 57.2 55.4 94% 29.95 0.0 0.02
07 06:35 NW 6 10.00 Light Rain OVC007 57.2 55.4 94% 29.94 0.0
07 06:15 Vrbl 5 10.00 Overcast OVC007 57.2 57.2 100% 29.91 0.0
07 05:55 N 5 10.00 Overcast OVC008 57.2 55.4 94% 29.92 0.0 0.02
07 05:35 Calm 9.00 Light Rain OVC008 57.2 57.2 100% 29.91 0.0
07 05:15 Calm 7.00 Light Rain BKN008 BKN024 OVC032 57.2 57.2 100% 29.9 0.0
07 04:55 N 8 10.00 Thunderstorm in Vicinity Drizzle SCT008 BKN024 OVC042 57.2 55.4 94% 29.91 0.0 0.03
07 04:35 Vrbl 7 5.00 Light Rain Fog/Mist BKN009 BKN023 OVC042 57.2 57.2 100% 29.88 0.0
07 04:15 Calm 10.00 Overcast OVC008 57.2 55.4 94% 29.91 0.0
07 03:55 Vrbl 5 G 13 10.00 Overcast OVC008 57.2 55.4 94% 29.9 0.0
07 03:35 N 10 10.00 Overcast OVC008 57.2 55.4 94% 29.91 0.0
07 03:15 N 8 G 15 10.00 Overcast OVC006 57.2 57.2 100% 29.9 0.0
07 02:55 Vrbl 7 10.00 Overcast OVC007 59 57.2 94% 29.9 0.0
07 02:35 N 8 G 14 10.00 Overcast OVC005 59 59 100% 29.89 0.0
07 02:15 Calm 10.00 Overcast OVC004 59 59 100% 29.88 0.0
07 01:55 Vrbl 3 G 13 3.00 Thunderstorm in Vicinity Rain Fog/Mist OVC004 60.8 59 94% 29.89 0.0 0.19
07 01:35 N 7 8.00 Thunderstorm Light Rain OVC005 60.8 60.8 100% 29.89 0.0
07 01:15 N 5 10.00 Overcast OVC007 60.8 60.8 100% 29.91 0.0
07 00:55 NW 5 10.00 Thunderstorm in Vicinity Rain OVC006 62.6 60.8 94% 29.91 0.0 0.02
07 00:35 Calm 7.00 Thunderstorm in Vicinity Rain BKN006 OVC012 62.6 62.6 100% 29.9 0.0
07 00:15 Vrbl 5 10.00 Overcast OVC006 64.4 62.6 94% 29.92 0.0
06 23:55 Vrbl 5 10.00 Overcast OVC005 64.4 62.6 94% 29.92 0.0
06 23:35 Calm 10.00 Thunderstorm in Vicinity OVC005 64.4 64.4 100% 29.91 0.0
06 23:15 NW 5 10.00 Thunderstorm in Vicinity BKN006 BKN055 OVC065 64.4 64.4 100% 29.91 0.0
06 22:55 Calm 10.00 Light Drizzle SCT004 BKN049 OVC065 64.4 64.4 100% 29.93 0.0 0.03
06 22:35 Calm 8.00 Light Rain BKN006 BKN022 OVC060 64.4 64.4 100% 29.91 0.0
06 22:15 NW 8 6.00 Rain Fog/Mist SCT005 BKN030 OVC055 64.4 64.4 100% 29.93 0.0
06 21:55 E 5 10.00 Light Rain FEW033 BKN055 OVC110 64.4 64.4 100% 29.87 0.0 0.02
06 21:35 Calm 8.00 Thunderstorm in Vicinity Rain SCT045 BKN065 OVC120 64.4 64.4 100% 29.9 0.0
06 21:15 Calm 10.00 Overcast BKN042 BKN050 OVC065 64.4 64.4 100% 29.9 0.0
06 20:55 Calm 10.00 Overcast SCT033 BKN040 OVC065 64.4 64.4 100% 29.91 0.0
06 20:35 NE 3 10.00 Overcast OVC030 64.4 64.4 100% 29.89 0.0
06 20:15 NE 3 10.00 Overcast OVC027 64.4 64.4 100% 29.89 0.0
06 19:55 E 5 10.00 Overcast OVC023 64.4 64.4 100% 29.88 0.0
06 19:35 Vrbl 5 10.00 Overcast OVC020 64.4 64.4 100% 29.9 0.0
06 19:15 Vrbl 7 G 14 10.00 Thunderstorm in Vicinity FEW011 OVC017 66.2 64.4 94% 29.92 0.0
06 18:55 N 10 G 17 10.00 Light Rain SCT006 BKN011 OVC015 66.2 64.4 94% 29.92 0.0 0.05
06 18:35 NW 9 9.00 Overcast BKN007 OVC012 69.8 69.8 100% 29.9 0.0
06 18:15 Calm 8.00 Overcast SCT005 BKN016 OVC022 69.8 69.8 100% 29.89 0.0
06 17:55 N 8 G 17 0.75 Heavy Rain Fog/Mist BKN004 OVC015 69.8 69.8 100% 29.87 0.0 0.35
06 17:35 N 7 2.00 Light Rain Fog/Mist BKN016 BKN025 OVC032 71.6 69.8 94% 29.86 0.0
06 17:15 Vrbl 3 9.00 Light Rain SCT031 BKN050 OVC070 75.2 69.8 83% 75 29.87 0.0
06 16:55 Calm 8.00 Light Rain BKN065 75.2 69.8 83% 75 29.87 0.0
06 16:35 Vrbl 5 G 13 10.00 Overcast FEW021 SCT028 OVC070 75.2 69.8 83% 75 29.86 0.0
06 16:15 Vrbl 5 G 12 10.00 Thunderstorm in Vicinity SCT023 BKN027 OVC037 77 69.8 79% 79 29.85 0.0
06 15:55 Vrbl 6 G 13 10.00 Mostly Cloudy SCT023 BKN028 BKN035 77 69.8 79% 79 29.87 0.0
06 15:35 Vrbl 6 G 13 10.00 Mostly Cloudy SCT023 BKN029 BKN036 78.8 69.8 74% 81 29.86 0.0
06 15:15 Vrbl 5 G 12 10.00 Mostly Cloudy BKN022 BKN028 BKN041 78.8 71.6 79% 82 29.87 0.0
06 14:55 Vrbl 6 G 14 10.00 Mostly Cloudy SCT022 BKN027 BKN032 78.8 69.8 74% 81 29.88 0.0
06 14:35 Vrbl 6 G 12 10.00 Thunderstorm in Vicinity SCT021 SCT027 BKN032 78.8 69.8 74% 81 29.89 0.0
06 14:15 Vrbl 3 10.00 Mostly Cloudy FEW020 SCT027 BKN037 77 71.6 83% 78 29.91 0.0
06 13:55 Calm 10.00 Overcast BKN027 BKN031 OVC044 77 69.8 79% 79 29.92 0.0
06 13:35 Vrbl 3 10.00 Overcast BKN024 OVC029 77 69.8 79% 79 29.91 0.0
06 13:15 Calm 10.00 Overcast BKN023 OVC030 77 69.8 79% 79 29.92 0.0
06 12:55 Vrbl 5 10.00 Overcast OVC024 77 69.8 79% 79 29.92 0.0
06 12:35 Vrbl 3 10.00 Overcast OVC025 77 69.8 79% 79 29.92 0.0
06 12:15 Vrbl 5 G 12 10.00 Overcast BKN025 OVC029 77 68 74% 79 29.93 0.0
06 11:55 SW 8 10.00 Overcast OVC026 77 68 74% 79 29.93 0.0
06 11:35 Calm 10.00 Overcast OVC029 77 68 74% 79 29.92 0.0
06 11:15 Vrbl 6 G 12 10.00 Overcast OVC028 77 68 74% 79 29.93 0.0
06 10:55 Vrbl 5 10.00 Overcast OVC028 75.2 68 78% 76 29.93 0.0
06 10:35 Calm 10.00 Overcast OVC024 73.4 66.2 78% 29.93 0.0
06 10:15 Calm 10.00 Overcast BKN022 OVC027 73.4 66.2 78% 29.93 0.0
06 09:55 Calm 10.00 Overcast BKN019 BKN024 OVC035 73.4 66.2 78% 29.93 0.0
06 09:35 Vrbl 5 10.00 Overcast BKN018 BKN023 OVC027 71.6 66.2 83% 29.93 0.0
06 09:15 Vrbl 3 10.00 Overcast OVC017 71.6 66.2 83% 29.94 0.0
06 08:55 Calm 10.00 Overcast OVC018 69.8 66.2 88% 29.93 0.0
06 08:35 Vrbl 3 10.00 Overcast OVC018 69.8 64.4 83% 29.93 0.0
06 08:15 Vrbl 5 10.00 Overcast OVC017 69.8 64.4 83% 29.94 0.0
06 07:55 Calm 10.00 Overcast OVC014 68 64.4 88% 29.94 0.0
06 07:35 Vrbl 5 10.00 Overcast OVC014 68 66.2 94% 29.94 0.0
06 07:15 Calm 10.00 Overcast OVC012 68 64.4 88% 29.93 0.0
06 06:55 Vrbl 6 10.00 Overcast OVC012 69.8 64.4 83% 29.91 0.0
06 06:35 Calm 10.00 Overcast OVC014 69.8 64.4 83% 29.9 0.0
06 06:15 Vrbl 5 10.00 Overcast OVC015 69.8 64.4 83% 29.9 0.0
06 05:55 Calm 10.00 Overcast OVC015 69.8 64.4 83% 29.89 0.0
06 05:35 Calm 10.00 Overcast OVC016 69.8 64.4 83% 29.89 0.0
06 05:15 Vrbl 3 10.00 Overcast OVC017 69.8 64.4 83% 29.88 0.0
06 04:55 Vrbl 5 10.00 Overcast OVC018 69.8 64.4 83% 29.88 0.0
06 04:35 Vrbl 5 10.00 Overcast OVC019 69.8 64.4 83% 29.86 0.0
06 04:15 Calm 10.00 Overcast OVC019 69.8 64.4 83% 29.87 0.0
06 03:55 Calm 10.00 Overcast OVC020 69.8 62.6 78% 29.87 0.0
06 03:35 Vrbl 6 G 14 10.00 Overcast OVC021 69.8 62.6 78% 29.87 0.0
06 03:15 Vrbl 5 10.00 Overcast OVC023 71.6 62.6 73% 29.86 0.0
06 02:55 Calm 10.00 Overcast BKN024 BKN042 OVC060 71.6 62.6 73% 29.86 0.0
06 02:35 Vrbl 3 10.00 Overcast FEW026 SCT039 OVC060 71.6 62.6 73% 29.85 0.0
06 02:15 Calm 10.00 Overcast FEW027 BKN040 OVC060 71.6 60.8 69% 29.85 0.0
06 01:55 Calm 10.00 Overcast SCT040 OVC060 71.6 60.8 69% 29.85 0.0
06 01:35 Calm 10.00 Overcast OVC065 71.6 60.8 69% 29.86 0.0
06 00:55 Vrbl 5 G 13 10.00 Overcast OVC065 71.6 60.8 69% 29.87 0.0
06 00:35 Calm 10.00 Overcast OVC070 69.8 60.8 73% 29.88 0.0
06 00:15 Calm 10.00 Overcast OVC065 71.6 60.8 69% 29.88 0.0
05 23:55 Calm 10.00 Overcast OVC070 69.8 60.8 73% 29.89 0.0
05 23:35 Calm 10.00 Overcast OVC070 69.8 60.8 73% 29.89 0.0
05 23:15 Calm 10.00 Overcast OVC070 69.8 60.8 73% 29.88 0.0
05 22:55 Vrbl 5 10.00 Overcast OVC070 69.8 60.8 73% 29.87 0.0
05 22:35 Calm 10.00 Overcast OVC070 69.8 60.8 73% 29.88 0.0
05 22:15 Calm 10.00 Overcast OVC070 69.8 60.8 73% 29.88 0.0
05 21:55 Calm 10.00 Mostly Cloudy BKN075 68 60.8 78% 29.87 0.0
05 21:35 Calm 10.00 Mostly Cloudy BKN075 69.8 60.8 73% 29.86 0.0
05 21:15 Calm 9.00 Overcast OVC075 69.8 60.8 73% 29.86 0.0
05 20:55 Calm 10.00 Overcast OVC075 69.8 59 69% 29.86 0.0
05 20:35 Calm 10.00 Overcast OVC075 71.6 60.8 69% 29.86 0.0
05 20:15 SE 6 10.00 Overcast FEW055 OVC080 71.6 60.8 69% 29.86 0.0
05 19:55 Calm 10.00 Overcast FEW055 OVC075 71.6 60.8 69% 29.87 0.0
05 19:15 Calm 10.00 Overcast OVC060 73.4 59 61% 29.86 0.0
05 18:55 Vrbl 5 10.00 Overcast OVC055 73.4 59 61% 29.87 0.0
Date Time (cdt) Wind (mph) Vis. (mi.) Weather Sky Cond. Air Dwpt Max. Min. Relative Humidity Wind Chill (°F) Heat Index (°F) altimeter (in) sea level (mb) 1 hr 3 hr 6 hr
6 hour
Temperature (ºF) Pressure Precipitation (in)